Pagrindinis puslapis
METAR-TAF:

METAR-TAF

Oro uostai :

Pėčas, Vengrija

platuma: 46-06N, ilguma: 018-14E, Aukštis: 201 m

Dabartinis oras

Ataskaita buvo paskelbta 7 valandos ir 9 minutes, ne 16:45 UTC
Vėjas 8 kt iš Rytų/Pietryčių
Temperatūra 15°C
Drėgmė 20%
Slėgis 1031 hPa
Matomumas 10 km arba daugiau
nėra debesų žemiau 1500 m ir nėra kamuolinių lietaus debesų

METAR: LHPP 071645Z 12008KT CAVOK 15/M08 Q1031

Laikas: 01:54 (23:54 UTC)

Prognozė

Ataskaita buvo paskelbta 9 valandos ir 39 minutes, ne 14:15 UTC
Prognozė galioja nuo 07 metu 15 UTC su 07 metu 24 UTC
Vėjas 12 kt iš Rytų
Matomumas 10 km arba daugiau
nėra debesų žemiau 1500 m ir nėra kamuolinių lietaus debesų
Tapsmas
nuo 07 metu 16 UTC su 07 metu 19 UTC
Vėjas 3 kt nuo kintamojo kryptimis

TAF: LHPP 071415Z 0715/0724 10012KT CAVOK BECMG 0716/0719 VRB03KT

Orai ataskaitas ir orų prognozės (METAR, TAF).

turimą stotys yra geltonos ir raudonos taškus žemėlapyje.

Perkelti pele per norėdami pamatyti stoties vardą.

Tada spustelėkite, norėdami matyti oro stebėjimo ir prognozės.

Norėdami pakeisti žemėlapį: spustelėkite ant žalios mygtukų su juodo kryžiaus žemyn,; žalią mygtuką su brūkšneliu, jei norite nutolinti; arba žalių rodyklių gretimoms žemėlapius.


METAR-TAF: